sensor_id;sensor_type;location;lat;lon;timestamp;pressure;altitude;pressure_sealevel;temperature;humidity
42621;BME280;28252;53.336;-6.298;2023-04-30T00:00:26;101280.28;;;21.54;100.00
42621;BME280;28252;53.336;-6.298;2023-04-30T00:00:59;101284.84;;;21.54;100.00
42621;BME280;28252;53.336;-6.298;2023-04-30T00:01:32;101283.16;;;21.53;100.00
42621;BME280;28252;53.336;-6.298;2023-04-30T00:02:06;101282.13;;;21.54;100.00
42621;BME280;28252;53.336;-6.298;2023-04-30T00:02:39;101280.44;;;21.53;100.00
42621;BME280;28252;53.336;-6.298;2023-04-30T00:03:13;101285.88;;;21.53;100.00
42621;BME280;28252;53.336;-6.298;2023-04-30T00:03:44;101281.44;;;21.52;100.00
42621;BME280;28252;53.336;-6.298;2023-04-30T00:04:17;101280.44;;;21.53;100.00
42621;BME280;28252;53.336;-6.298;2023-04-30T00:04:51;101282.31;;;21.52;100.00
42621;BME280;28252;53.336;-6.298;2023-04-30T00:05:22;101290.44;;;21.52;100.00
42621;BME280;28252;53.336;-6.298;2023-04-30T00:05:55;101282.47;;;21.51;100.00
42621;BME280;28252;53.336;-6.298;2023-04-30T00:06:26;101286.19;;;21.50;100.00
42621;BME280;28252;53.336;-6.298;2023-04-30T00:06:59;101293.31;;;21.51;100.00
42621;BME280;28252;53.336;-6.298;2023-04-30T00:07:35;101289.75;;;21.50;100.00
42621;BME280;28252;53.336;-6.298;2023-04-30T00:08:14;101289.91;;;21.49;100.00
42621;BME280;28252;53.336;-6.298;2023-04-30T00:08:49;101287.03;;;21.50;100.00
42621;BME280;28252;53.336;-6.298;2023-04-30T00:09:22;101291.63;;;21.50;100.00
42621;BME280;28252;53.336;-6.298;2023-04-30T00:09:55;101296.19;;;21.49;100.00
42621;BME280;28252;53.336;-6.298;2023-04-30T00:10:28;101291.63;;;21.50;100.00
42621;BME280;28252;53.336;-6.298;2023-04-30T00:11:01;101283.66;;;21.48;100.00
42621;BME280;28252;53.336;-6.298;2023-04-30T00:11:38;101289.91;;;21.49;100.00
42621;BME280;28252;53.336;-6.298;2023-04-30T00:12:13;101289.91;;;21.49;100.00
42621;BME280;28252;53.336;-6.298;2023-04-30T00:12:50;101283.66;;;21.48;100.00
42621;BME280;28252;53.336;-6.298;2023-04-30T00:13:23;101282.81;;;21.48;100.00
42621;BME280;28252;53.336;-6.298;2023-04-30T00:13:56;101288.22;;;21.48;100.00
42621;BME280;28252;53.336;-6.298;2023-04-30T00:14:31;101287.38;;;21.47;100.00
42621;BME280;28252;53.336;-6.298;2023-04-30T00:15:07;101288.22;;;21.48;100.00
42621;BME280;28252;53.336;-6.298;2023-04-30T00:15:40;101286.53;;;21.47;100.00
42621;BME280;28252;53.336;-6.298;2023-04-30T00:16:11;101287.38;;;21.47;100.00
42621;BME280;28252;53.336;-6.298;2023-04-30T00:16:42;101281.09;;;21.47;100.00
42621;BME280;28252;53.336;-6.298;2023-04-30T00:17:16;101287.53;;;21.45;100.00
42621;BME280;28252;53.336;-6.298;2023-04-30T00:17:47;101280.22;;;21.46;100.00
42621;BME280;28252;53.336;-6.298;2023-04-30T00:18:18;101281.09;;;21.47;100.00
42621;BME280;28252;53.336;-6.298;2023-04-30T00:18:51;101282.81;;;21.48;100.00
42621;BME280;28252;53.336;-6.298;2023-04-30T00:19:22;101286.53;;;21.47;100.00
42621;BME280;28252;53.336;-6.298;2023-04-30T00:19:56;101288.34;;;21.46;100.00
42621;BME280;28252;53.336;-6.298;2023-04-30T00:20:27;101282.09;;;21.45;100.00
42621;BME280;28252;53.336;-6.298;2023-04-30T00:21:02;101285.66;;;21.46;100.00
42621;BME280;28252;53.336;-6.298;2023-04-30T00:21:33;101290.22;;;21.45;100.00
42621;BME280;28252;53.336;-6.298;2023-04-30T00:22:07;101275.81;;;21.45;100.00
42621;BME280;28252;53.336;-6.298;2023-04-30T00:22:42;101287.53;;;21.45;100.00
42621;BME280;28252;53.336;-6.298;2023-04-30T00:23:15;101278.50;;;21.45;100.00
42621;BME280;28252;53.336;-6.298;2023-04-30T00:23:52;101282.25;;;21.44;100.00
42621;BME280;28252;53.336;-6.298;2023-04-30T00:24:25;101281.38;;;21.43;100.00
42621;BME280;28252;53.336;-6.298;2023-04-30T00:25:04;101275.97;;;21.43;100.00
42621;BME280;28252;53.336;-6.298;2023-04-30T00:25:38;101282.25;;;21.44;100.00
42621;BME280;28252;53.336;-6.298;2023-04-30T00:26:11;101277.69;;;21.44;100.00
42621;BME280;28252;53.336;-6.298;2023-04-30T00:26:43;101274.97;;;21.44;100.00
42621;BME280;28252;53.336;-6.298;2023-04-30T00:27:18;101270.53;;;21.43;100.00
42621;BME280;28252;53.336;-6.298;2023-04-30T00:27:50;101271.41;;;21.44;100.00
42621;BME280;28252;53.336;-6.298;2023-04-30T00:28:21;101275.13;;;21.43;100.00
42621;BME280;28252;53.336;-6.298;2023-04-30T00:28:52;101278.69;;;21.43;100.00
42621;BME280;28252;53.336;-6.298;2023-04-30T00:29:26;101276.84;;;21.44;100.00
42621;BME280;28252;53.336;-6.298;2023-04-30T00:29:59;101274.28;;;21.42;100.00
42621;BME280;28252;53.336;-6.298;2023-04-30T00:30:41;101277.00;;;21.42;100.00
42621;BME280;28252;53.336;-6.298;2023-04-30T00:31:14;101277.00;;;21.42;100.00
42621;BME280;28252;53.336;-6.298;2023-04-30T00:31:48;101269.72;;;21.43;100.00
42621;BME280;28252;53.336;-6.298;2023-04-30T00:32:22;101277.00;;;21.42;100.00
42621;BME280;28252;53.336;-6.298;2023-04-30T00:32:57;101278.00;;;21.41;100.00
42621;BME280;28252;53.336;-6.298;2023-04-30T00:33:30;101278.00;;;21.41;100.00
42621;BME280;28252;53.336;-6.298;2023-04-30T00:34:05;101277.16;;;21.41;100.00
42621;BME280;28252;53.336;-6.298;2023-04-30T00:34:41;101270.91;;;21.40;100.00
42621;BME280;28252;53.336;-6.298;2023-04-30T00:35:12;101276.31;;;21.40;100.00
42621;BME280;28252;53.336;-6.298;2023-04-30T00:35:43;101276.31;;;21.40;100.00
42621;BME280;28252;53.336;-6.298;2023-04-30T00:36:19;101271.75;;;21.41;100.00
42621;BME280;28252;53.336;-6.298;2023-04-30T00:36:51;101270.03;;;21.40;100.00
42621;BME280;28252;53.336;-6.298;2023-04-30T00:37:22;101275.44;;;21.40;100.00
42621;BME280;28252;53.336;-6.298;2023-04-30T00:37:55;101280.03;;;21.39;100.00
42621;BME280;28252;53.336;-6.298;2023-04-30T00:38:28;101280.03;;;21.39;100.00
42621;BME280;28252;53.336;-6.298;2023-04-30T00:39:01;101275.63;;;21.38;100.00
42621;BME280;28252;53.336;-6.298;2023-04-30T00:39:35;101275.63;;;21.38;100.00
42621;BME280;28252;53.336;-6.298;2023-04-30T00:40:11;101278.31;;;21.38;100.00
42621;BME280;28252;53.336;-6.298;2023-04-30T00:40:47;101277.47;;;21.38;100.00
42621;BME280;28252;53.336;-6.298;2023-04-30T00:41:21;101272.91;;;21.38;100.00
42621;BME280;28252;53.336;-6.298;2023-04-30T00:41:56;101272.06;;;21.38;100.00
42621;BME280;28252;53.336;-6.298;2023-04-30T00:42:33;101272.06;;;21.38;100.00
42621;BME280;28252;53.336;-6.298;2023-04-30T00:43:07;101276.66;;;21.37;100.00
42621;BME280;28252;53.336;-6.298;2023-04-30T00:43:40;101281.22;;;21.37;100.00
42621;BME280;28252;53.336;-6.298;2023-04-30T00:44:13;101280.19;;;21.38;100.00
42621;BME280;28252;53.336;-6.298;2023-04-30T00:44:47;101276.66;;;21.37;100.00
42621;BME280;28252;53.336;-6.298;2023-04-30T00:45:21;101282.06;;;21.37;100.00
42621;BME280;28252;53.336;-6.298;2023-04-30T00:45:54;101281.22;;;21.37;100.00
42621;BME280;28252;53.336;-6.298;2023-04-30T00:46:29;101279.34;;;21.37;100.00
42621;BME280;28252;53.336;-6.298;2023-04-30T00:47:05;101284.78;;;21.37;100.00
42621;BME280;28252;53.336;-6.298;2023-04-30T00:47:38;101280.34;;;21.36;100.00
42621;BME280;28252;53.336;-6.298;2023-04-30T00:48:12;101280.34;;;21.36;100.00
42621;BME280;28252;53.336;-6.298;2023-04-30T00:48:45;101284.94;;;21.36;100.00
42621;BME280;28252;53.336;-6.298;2023-04-30T00:49:22;101284.09;;;21.35;100.00
42621;BME280;28252;53.336;-6.298;2023-04-30T00:50:02;101288.47;;;21.36;100.00
42621;BME280;28252;53.336;-6.298;2023-04-30T00:50:38;101278.69;;;21.35;100.00
42621;BME280;28252;53.336;-6.298;2023-04-30T00:51:11;101276.97;;;21.34;100.00
42621;BME280;28252;53.336;-6.298;2023-04-30T00:51:43;101279.69;;;21.34;100.00
42621;BME280;28252;53.336;-6.298;2023-04-30T00:52:22;101280.50;;;21.35;100.00
42621;BME280;28252;53.336;-6.298;2023-04-30T00:52:55;101282.38;;;21.34;100.00
42621;BME280;28252;53.336;-6.298;2023-04-30T00:53:31;101275.25;;;21.33;100.00
42621;BME280;28252;53.336;-6.298;2023-04-30T00:54:03;101268.16;;;21.32;100.00
42621;BME280;28252;53.336;-6.298;2023-04-30T00:54:35;101281.53;;;21.34;100.00
42621;BME280;28252;53.336;-6.298;2023-04-30T00:56:25;101273.56;;;21.32;100.00
42621;BME280;28252;53.336;-6.298;2023-04-30T00:57:01;101273.56;;;21.32;100.00
42621;BME280;28252;53.336;-6.298;2023-04-30T00:57:32;101280.84;;;21.32;100.00
42621;BME280;28252;53.336;-6.298;2023-04-30T00:58:06;101279.00;;;21.32;100.00
42621;BME280;28252;53.336;-6.298;2023-04-30T00:58:37;101279.00;;;21.32;100.00
42621;BME280;28252;53.336;-6.298;2023-04-30T00:59:12;101271.88;;;21.31;100.00
42621;BME280;28252;53.336;-6.298;2023-04-30T00:59:47;101276.44;;;21.31;100.00
42621;BME280;28252;53.336;-6.298;2023-04-30T01:00:25;101273.56;;;21.32;100.00
42621;BME280;28252;53.336;-6.298;2023-04-30T01:00:57;101270.88;;;21.32;100.00
42621;BME280;28252;53.336;-6.298;2023-04-30T01:01:32;101270.88;;;21.32;100.00
42621;BME280;28252;53.336;-6.298;2023-04-30T01:02:11;101271.88;;;21.31;100.00
42621;BME280;28252;53.336;-6.298;2023-04-30T01:02:45;101270.88;;;21.32;100.00
42621;BME280;28252;53.336;-6.298;2023-04-30T01:03:18;101273.56;;;21.32;100.00
42621;BME280;28252;53.336;-6.298;2023-04-30T01:03:57;101273.56;;;21.32;100.00
42621;BME280;28252;53.336;-6.298;2023-04-30T01:04:28;101278.13;;;21.32;100.00
42621;BME280;28252;53.336;-6.298;2023-04-30T01:05:00;101275.59;;;21.30;100.00
42621;BME280;28252;53.336;-6.298;2023-04-30T01:05:34;101274.75;;;21.30;100.00
42621;BME280;28252;53.336;-6.298;2023-04-30T01:06:07;101270.19;;;21.30;100.00
42621;BME280;28252;53.336;-6.298;2023-04-30T01:06:40;101275.59;;;21.30;100.00
42621;BME280;28252;53.336;-6.298;2023-04-30T01:07:12;101271.19;;;21.29;100.00
42621;BME280;28252;53.336;-6.298;2023-04-30T01:07:44;101273.91;;;21.29;100.00
42621;BME280;28252;53.336;-6.298;2023-04-30T01:08:16;101274.75;;;21.30;100.00
42621;BME280;28252;53.336;-6.298;2023-04-30T01:08:52;101271.19;;;21.29;100.00
42621;BME280;28252;53.336;-6.298;2023-04-30T01:09:27;101268.47;;;21.29;100.00
42621;BME280;28252;53.336;-6.298;2023-04-30T01:10:01;101272.91;;;21.30;100.00
42621;BME280;28252;53.336;-6.298;2023-04-30T01:10:43;101266.59;;;21.30;100.00
42621;BME280;28252;53.336;-6.298;2023-04-30T01:11:27;101260.50;;;21.27;100.00
42621;BME280;28252;53.336;-6.298;2023-04-30T01:12:09;101267.63;;;21.29;100.00
42621;BME280;28252;53.336;-6.298;2023-04-30T01:13:26;101262.22;;;21.29;100.00
42621;BME280;28252;53.336;-6.298;2023-04-30T01:16:27;101265.94;;;21.27;100.00
42621;BME280;28252;53.336;-6.298;2023-04-30T01:17:07;101263.38;;;21.26;100.00
42621;BME280;28252;53.336;-6.298;2023-04-30T01:18:28;101261.69;;;21.25;100.00
42621;BME280;28252;53.336;-6.298;2023-04-30T01:19:08;101257.97;;;21.26;100.00
42621;BME280;28252;53.336;-6.298;2023-04-30T01:19:44;101257.13;;;21.25;100.00
42621;BME280;28252;53.336;-6.298;2023-04-30T01:20:21;101256.28;;;21.25;100.00
42621;BME280;28252;53.336;-6.298;2023-04-30T01:21:17;101257.97;;;21.26;100.00
42621;BME280;28252;53.336;-6.298;2023-04-30T01:21:55;101253.56;;;21.25;100.00
42621;BME280;28252;53.336;-6.298;2023-04-30T01:22:54;101257.13;;;21.25;100.00
42621;BME280;28252;53.336;-6.298;2023-04-30T01:24:14;101256.28;;;21.25;100.00
42621;BME280;28252;53.336;-6.298;2023-04-30T01:26:19;101257.13;;;21.25;100.00
42621;BME280;28252;53.336;-6.298;2023-04-30T01:27:05;101257.28;;;21.24;100.00
42621;BME280;28252;53.336;-6.298;2023-04-30T01:28:21;101255.56;;;21.23;100.00
42621;BME280;28252;53.336;-6.298;2023-04-30T01:28:54;101251.88;;;21.24;100.00
42621;BME280;28252;53.336;-6.298;2023-04-30T01:29:26;101251.03;;;21.23;100.00
42621;BME280;28252;53.336;-6.298;2023-04-30T01:30:02;101256.44;;;21.23;100.00
42621;BME280;28252;53.336;-6.298;2023-04-30T01:30:42;101255.56;;;21.23;100.00
42621;BME280;28252;53.336;-6.298;2023-04-30T01:31:18;101251.19;;;21.22;100.00
42621;BME280;28252;53.336;-6.298;2023-04-30T01:32:01;101251.19;;;21.22;100.00
42621;BME280;28252;53.336;-6.298;2023-04-30T01:32:35;101256.59;;;21.22;100.00
42621;BME280;28252;53.336;-6.298;2023-04-30T01:33:09;101250.31;;;21.21;100.00
42621;BME280;28252;53.336;-6.298;2023-04-30T01:33:44;101250.31;;;21.21;100.00
42621;BME280;28252;53.336;-6.298;2023-04-30T01:34:19;101245.78;;;21.22;100.00
42621;BME280;28252;53.336;-6.298;2023-04-30T01:34:51;101253.91;;;21.22;100.00
42621;BME280;28252;53.336;-6.298;2023-04-30T01:39:54;101242.38;;;21.20;100.00
42621;BME280;28252;53.336;-6.298;2023-04-30T01:40:47;101241.50;;;21.19;100.00
42621;BME280;28252;53.336;-6.298;2023-04-30T01:42:28;101243.38;;;21.19;100.00
42621;BME280;28252;53.336;-6.298;2023-04-30T01:43:06;101246.09;;;21.19;100.00
42621;BME280;28252;53.336;-6.298;2023-04-30T01:44:28;101243.38;;;21.19;100.00
42621;BME280;28252;53.336;-6.298;2023-04-30T01:46:54;101241.66;;;21.18;100.00
42621;BME280;28252;53.336;-6.298;2023-04-30T01:47:43;101237.28;;;21.17;100.00
42621;BME280;28252;53.336;-6.298;2023-04-30T01:49:11;101235.41;;;21.17;100.00
42621;BME280;28252;53.336;-6.298;2023-04-30T01:50:26;101235.56;;;21.16;100.00
42621;BME280;28252;53.336;-6.298;2023-04-30T01:51:11;101236.41;;;21.16;100.00
42621;BME280;28252;53.336;-6.298;2023-04-30T01:51:47;101234.75;;;21.15;100.00
42621;BME280;28252;53.336;-6.298;2023-04-30T01:52:25;101234.75;;;21.15;100.00
42621;BME280;28252;53.336;-6.298;2023-04-30T01:53:06;101235.75;;;21.14;100.00
42621;BME280;28252;53.336;-6.298;2023-04-30T01:53:46;101233.91;;;21.15;100.00
42621;BME280;28252;53.336;-6.298;2023-04-30T01:54:44;101244.72;;;21.15;100.00
42621;BME280;28252;53.336;-6.298;2023-04-30T01:56:26;101234.91;;;21.14;100.00
42621;BME280;28252;53.336;-6.298;2023-04-30T01:57:32;101237.59;;;21.14;100.00
42621;BME280;28252;53.336;-6.298;2023-04-30T01:58:08;101226.78;;;21.14;100.00
42621;BME280;28252;53.336;-6.298;2023-04-30T01:58:45;101236.78;;;21.13;100.00
42621;BME280;28252;53.336;-6.298;2023-04-30T01:59:18;101230.47;;;21.13;100.00
42621;BME280;28252;53.336;-6.298;2023-04-30T01:59:53;101225.94;;;21.13;100.00
42621;BME280;28252;53.336;-6.298;2023-04-30T02:00:26;101228.63;;;21.13;100.00
42621;BME280;28252;53.336;-6.298;2023-04-30T02:00:59;101227.78;;;21.13;100.00
42621;BME280;28252;53.336;-6.298;2023-04-30T02:01:31;101226.94;;;21.12;100.00
42621;BME280;28252;53.336;-6.298;2023-04-30T02:02:02;101227.78;;;21.13;100.00
42621;BME280;28252;53.336;-6.298;2023-04-30T02:02:39;101227.78;;;21.13;100.00
42621;BME280;28252;53.336;-6.298;2023-04-30T02:03:16;101227.78;;;21.13;100.00
42621;BME280;28252;53.336;-6.298;2023-04-30T02:03:55;101223.38;;;21.12;100.00
42621;BME280;28252;53.336;-6.298;2023-04-30T02:04:28;101219.66;;;21.13;100.00
42621;BME280;28252;53.336;-6.298;2023-04-30T02:05:06;101221.69;;;21.11;100.00
42621;BME280;28252;53.336;-6.298;2023-04-30T02:05:43;101218.13;;;21.10;100.00
42621;BME280;28252;53.336;-6.298;2023-04-30T02:06:15;101220.69;;;21.12;100.00
42621;BME280;28252;53.336;-6.298;2023-04-30T02:06:50;101221.69;;;21.11;100.00
42621;BME280;28252;53.336;-6.298;2023-04-30T02:07:30;101222.50;;;21.11;100.00
42621;BME280;28252;53.336;-6.298;2023-04-30T02:08:12;101210.84;;;21.11;100.00
42621;BME280;28252;53.336;-6.298;2023-04-30T02:08:45;101213.56;;;21.11;100.00
42621;BME280;28252;53.336;-6.298;2023-04-30T02:09:19;101213.56;;;21.11;100.00
42621;BME280;28252;53.336;-6.298;2023-04-30T02:09:55;101216.25;;;21.11;100.00
42621;BME280;28252;53.336;-6.298;2023-04-30T02:10:26;101212.72;;;21.10;100.00
42621;BME280;28252;53.336;-6.298;2023-04-30T02:11:02;101209.16;;;21.10;100.00
42621;BME280;28252;53.336;-6.298;2023-04-30T02:11:38;101209.16;;;21.10;100.00
42621;BME280;28252;53.336;-6.298;2023-04-30T02:12:10;101207.47;;;21.08;100.00
42621;BME280;28252;53.336;-6.298;2023-04-30T02:12:48;101207.47;;;21.08;100.00
42621;BME280;28252;53.336;-6.298;2023-04-30T02:13:20;101209.16;;;21.10;100.00
42621;BME280;28252;53.336;-6.298;2023-04-30T02:13:51;101203.75;;;21.10;100.00
42621;BME280;28252;53.336;-6.298;2023-04-30T02:14:24;101207.47;;;21.08;100.00
42621;BME280;28252;53.336;-6.298;2023-04-30T02:14:58;101213.72;;;21.09;100.00
42621;BME280;28252;53.336;-6.298;2023-04-30T02:16:53;101212.03;;;21.08;100.00
42621;BME280;28252;53.336;-6.298;2023-04-30T02:17:26;101216.59;;;21.07;100.00
42621;BME280;28252;53.336;-6.298;2023-04-30T02:17:57;101208.47;;;21.07;100.00
42621;BME280;28252;53.336;-6.298;2023-04-30T02:18:31;101209.50;;;21.06;100.00
42621;BME280;28252;53.336;-6.298;2023-04-30T02:19:02;101205.75;;;21.07;100.00
42621;BME280;28252;53.336;-6.298;2023-04-30T02:19:36;101204.75;;;21.08;100.00
42621;BME280;28252;53.336;-6.298;2023-04-30T02:20:09;101210.31;;;21.07;100.00
42621;BME280;28252;53.336;-6.298;2023-04-30T02:20:40;101204.91;;;21.07;100.00
42621;BME280;28252;53.336;-6.298;2023-04-30T02:21:11;101205.91;;;21.06;100.00
42621;BME280;28252;53.336;-6.298;2023-04-30T02:21:47;101201.38;;;21.06;100.00
42621;BME280;28252;53.336;-6.298;2023-04-30T02:22:22;101214.03;;;21.06;100.00
42621;BME280;28252;53.336;-6.298;2023-04-30T02:23:00;101213.19;;;21.05;100.00
42621;BME280;28252;53.336;-6.298;2023-04-30T02:23:33;101204.06;;;21.06;100.00
42621;BME280;28252;53.336;-6.298;2023-04-30T02:24:05;101205.06;;;21.05;100.00
42621;BME280;28252;53.336;-6.298;2023-04-30T02:24:39;101206.94;;;21.05;100.00
42621;BME280;28252;53.336;-6.298;2023-04-30T02:25:15;101205.06;;;21.05;100.00
42621;BME280;28252;53.336;-6.298;2023-04-30T02:25:46;101204.06;;;21.06;100.00
42621;BME280;28252;53.336;-6.298;2023-04-30T02:26:19;101204.06;;;21.06;100.00
42621;BME280;28252;53.336;-6.298;2023-04-30T02:26:51;101207.78;;;21.05;100.00
42621;BME280;28252;53.336;-6.298;2023-04-30T02:27:23;101203.19;;;21.06;100.00
42621;BME280;28252;53.336;-6.298;2023-04-30T02:27:59;101202.34;;;21.05;100.00
42621;BME280;28252;53.336;-6.298;2023-04-30T02:28:35;101203.38;;;21.04;100.00
42621;BME280;28252;53.336;-6.298;2023-04-30T02:29:07;101210.50;;;21.05;100.00
42621;BME280;28252;53.336;-6.298;2023-04-30T02:29:38;101201.53;;;21.05;100.00
42621;BME280;28252;53.336;-6.298;2023-04-30T02:30:13;101204.38;;;21.03;100.00
42621;BME280;28252;53.336;-6.298;2023-04-30T02:30:46;101200.69;;;21.04;100.00
42621;BME280;28252;53.336;-6.298;2023-04-30T02:31:20;101205.22;;;21.04;100.00
42621;BME280;28252;53.336;-6.298;2023-04-30T02:31:57;101204.38;;;21.03;100.00
42621;BME280;28252;53.336;-6.298;2023-04-30T02:32:28;101201.69;;;21.03;100.00
42621;BME280;28252;53.336;-6.298;2023-04-30T02:32:59;101202.69;;;21.02;100.00
42621;BME280;28252;53.336;-6.298;2023-04-30T02:33:30;101201.69;;;21.03;100.00
42621;BME280;28252;53.336;-6.298;2023-04-30T02:34:01;101198.97;;;21.03;100.00
42621;BME280;28252;53.336;-6.298;2023-04-30T02:34:37;101202.69;;;21.02;100.00
42621;BME280;28252;53.336;-6.298;2023-04-30T02:35:12;101198.97;;;21.03;100.00
42621;BME280;28252;53.336;-6.298;2023-04-30T02:35:43;101205.38;;;21.02;100.00
42621;BME280;28252;53.336;-6.298;2023-04-30T02:36:17;101197.25;;;21.02;100.00
42621;BME280;28252;53.336;-6.298;2023-04-30T02:36:50;101198.13;;;21.03;100.00
42621;BME280;28252;53.336;-6.298;2023-04-30T02:37:21;101196.44;;;21.02;100.00
42621;BME280;28252;53.336;-6.298;2023-04-30T02:37:57;101194.56;;;21.02;100.00
42621;BME280;28252;53.336;-6.298;2023-04-30T02:38:29;101202.69;;;21.02;100.00
42621;BME280;28252;53.336;-6.298;2023-04-30T02:39:02;101193.88;;;21.00;100.00
42621;BME280;28252;53.336;-6.298;2023-04-30T02:39:38;101199.13;;;21.02;100.00
42621;BME280;28252;53.336;-6.298;2023-04-30T02:40:12;101194.72;;;21.01;100.00
42621;BME280;28252;53.336;-6.298;2023-04-30T02:40:43;101196.44;;;21.02;100.00
42621;BME280;28252;53.336;-6.298;2023-04-30T02:41:18;101195.59;;;21.01;100.00
42621;BME280;28252;53.336;-6.298;2023-04-30T02:41:54;101201.00;;;21.01;100.00
42621;BME280;28252;53.336;-6.298;2023-04-30T02:42:27;101197.59;;;20.99;100.00
42621;BME280;28252;53.336;-6.298;2023-04-30T02:43:00;101196.59;;;21.00;100.00
42621;BME280;28252;53.336;-6.298;2023-04-30T02:43:36;101193.88;;;21.00;100.00
42621;BME280;28252;53.336;-6.298;2023-04-30T02:44:07;101193.88;;;21.00;100.00
42621;BME280;28252;53.336;-6.298;2023-04-30T02:44:40;101189.47;;;20.99;100.00
42621;BME280;28252;53.336;-6.298;2023-04-30T02:45:11;101188.47;;;21.00;100.00
42621;BME280;28252;53.336;-6.298;2023-04-30T02:45:44;101190.50;;;20.98;100.00
42621;BME280;28252;53.336;-6.298;2023-04-30T02:46:18;101187.78;;;20.98;100.00
42621;BME280;28252;53.336;-6.298;2023-04-30T02:47:52;101191.34;;;20.99;100.00
42621;BME280;28252;53.336;-6.298;2023-04-30T02:48:26;101189.47;;;20.99;100.00
42621;BME280;28252;53.336;-6.298;2023-04-30T02:49:02;101194.19;;;20.97;100.00
42621;BME280;28252;53.336;-6.298;2023-04-30T02:49:38;101187.78;;;20.98;100.00
42621;BME280;28252;53.336;-6.298;2023-04-30T02:50:13;101188.63;;;20.99;100.00
42621;BME280;28252;53.336;-6.298;2023-04-30T02:50:48;101185.91;;;20.99;100.00
42621;BME280;28252;53.336;-6.298;2023-04-30T02:51:22;101193.19;;;20.98;100.00
42621;BME280;28252;53.336;-6.298;2023-04-30T02:51:53;101189.66;;;20.98;100.00
42621;BME280;28252;53.336;-6.298;2023-04-30T02:52:26;101180.50;;;20.99;100.00
42621;BME280;28252;53.336;-6.298;2023-04-30T02:53:01;101188.78;;;20.97;100.00
42621;BME280;28252;53.336;-6.298;2023-04-30T02:53:37;101180.66;;;20.97;100.00
42621;BME280;28252;53.336;-6.298;2023-04-30T02:54:13;101177.94;;;20.97;100.00
42621;BME280;28252;53.336;-6.298;2023-04-30T02:54:47;101186.06;;;20.97;100.00
42621;BME280;28252;53.336;-6.298;2023-04-30T02:55:20;101190.66;;;20.97;100.00
42621;BME280;28252;53.336;-6.298;2023-04-30T02:55:53;101180.81;;;20.96;100.00
42621;BME280;28252;53.336;-6.298;2023-04-30T02:56:27;101181.69;;;20.96;100.00
42621;BME280;28252;53.336;-6.298;2023-04-30T02:57:00;101182.53;;;20.97;100.00
42621;BME280;28252;53.336;-6.298;2023-04-30T02:57:34;101183.38;;;20.97;100.00
42621;BME280;28252;53.336;-6.298;2023-04-30T02:58:05;101185.41;;;20.95;100.00
42621;BME280;28252;53.336;-6.298;2023-04-30T02:58:40;101176.44;;;20.95;100.00
42621;BME280;28252;53.336;-6.298;2023-04-30T02:59:13;101178.28;;;20.94;100.00
42621;BME280;28252;53.336;-6.298;2023-04-30T02:59:49;101178.28;;;20.94;100.00
42621;BME280;28252;53.336;-6.298;2023-04-30T03:00:28;101179.31;;;20.93;100.00
42621;BME280;28252;53.336;-6.298;2023-04-30T03:01:06;101178.28;;;20.94;100.00
42621;BME280;28252;53.336;-6.298;2023-04-30T03:01:39;101178.28;;;20.94;100.00
42621;BME280;28252;53.336;-6.298;2023-04-30T03:02:10;101178.47;;;20.93;100.00
42621;BME280;28252;53.336;-6.298;2023-04-30T03:02:44;101175.56;;;20.94;100.00
42621;BME280;28252;53.336;-6.298;2023-04-30T03:03:18;101176.59;;;20.93;100.00
42621;BME280;28252;53.336;-6.298;2023-04-30T03:03:49;101176.59;;;20.93;100.00
42621;BME280;28252;53.336;-6.298;2023-04-30T03:04:20;101175.75;;;20.93;100.00
42621;BME280;28252;53.336;-6.298;2023-04-30T03:04:53;101180.31;;;20.92;100.00
42621;BME280;28252;53.336;-6.298;2023-04-30T03:05:24;101181.19;;;20.93;100.00
42621;BME280;28252;53.336;-6.298;2023-04-30T03:05:58;101180.31;;;20.92;100.00
42621;BME280;28252;53.336;-6.298;2023-04-30T03:06:36;101180.31;;;20.92;100.00
42621;BME280;28252;53.336;-6.298;2023-04-30T03:07:07;101180.31;;;20.92;100.00
42621;BME280;28252;53.336;-6.298;2023-04-30T03:07:42;101183.00;;;20.92;100.00
42621;BME280;28252;53.336;-6.298;2023-04-30T03:08:13;101183.00;;;20.92;100.00
42621;BME280;28252;53.336;-6.298;2023-04-30T03:08:44;101184.03;;;20.91;100.00
42621;BME280;28252;53.336;-6.298;2023-04-30T03:09:16;101182.19;;;20.92;100.00
42621;BME280;28252;53.336;-6.298;2023-04-30T03:09:52;101180.31;;;20.92;100.00
42621;BME280;28252;53.336;-6.298;2023-04-30T03:10:28;101181.34;;;20.91;100.00
42621;BME280;28252;53.336;-6.298;2023-04-30T03:11:02;101183.00;;;20.92;100.00
42621;BME280;28252;53.336;-6.298;2023-04-30T03:11:35;101183.16;;;20.90;100.00
42621;BME280;28252;53.336;-6.298;2023-04-30T03:12:09;101180.31;;;20.92;100.00
42621;BME280;28252;53.336;-6.298;2023-04-30T03:12:45;101190.28;;;20.92;100.00
42621;BME280;28252;53.336;-6.298;2023-04-30T03:13:16;101184.03;;;20.91;100.00
42621;BME280;28252;53.336;-6.298;2023-04-30T03:13:49;101183.16;;;20.90;100.00
42621;BME280;28252;53.336;-6.298;2023-04-30T03:14:23;101183.16;;;20.90;100.00
42621;BME280;28252;53.336;-6.298;2023-04-30T03:14:56;101184.03;;;20.91;100.00
42621;BME280;28252;53.336;-6.298;2023-04-30T03:15:36;101182.34;;;20.90;100.00
42621;BME280;28252;53.336;-6.298;2023-04-30T03:16:12;101181.50;;;20.89;100.00
42621;BME280;28252;53.336;-6.298;2023-04-30T03:16:45;101182.34;;;20.90;100.00
42621;BME280;28252;53.336;-6.298;2023-04-30T03:17:21;101185.03;;;20.90;100.00
42621;BME280;28252;53.336;-6.298;2023-04-30T03:17:57;101182.34;;;20.90;100.00
42621;BME280;28252;53.336;-6.298;2023-04-30T03:18:30;101186.03;;;20.89;100.00